createdAt,value
2018-09-22T00:00:54.558Z,16.50
2018-09-22T00:03:25.147Z,16.50
2018-09-22T00:05:53.556Z,16.40
2018-09-22T00:08:22.360Z,16.40
2018-09-22T00:10:51.340Z,16.50
2018-09-22T00:13:21.117Z,16.50
2018-09-22T00:15:49.485Z,16.40
2018-09-22T00:18:26.914Z,16.40
2018-09-22T00:20:59.356Z,16.40
2018-09-22T00:23:30.813Z,16.40
2018-09-22T00:25:59.136Z,16.30
2018-09-22T00:28:27.744Z,16.40
2018-09-22T00:30:56.482Z,16.30
2018-09-22T00:33:32.161Z,16.40
2018-09-22T00:36:05.438Z,16.30
2018-09-22T00:38:36.888Z,16.30
2018-09-22T00:41:06.086Z,16.30
2018-09-22T00:43:34.067Z,16.30
2018-09-22T00:46:04.319Z,16.30
2018-09-22T00:48:36.450Z,16.30
2018-09-22T00:51:05.171Z,16.40
2018-09-22T00:53:34.353Z,16.30
2018-09-22T00:56:02.582Z,16.30
2018-09-22T00:58:31.064Z,16.30
2018-09-22T01:01:02.887Z,16.10
2018-09-22T01:03:33.559Z,16.20
2018-09-22T01:09:10.781Z,16.20
2018-09-22T01:11:39.230Z,16.20
2018-09-22T01:14:07.856Z,16.20
2018-09-22T01:16:37.617Z,16.20
2018-09-22T01:19:05.925Z,16.20
2018-09-22T01:21:38.170Z,16.20
2018-09-22T01:24:06.693Z,16.20
2018-09-22T01:26:37.509Z,16.20
2018-09-22T01:29:06.247Z,16.20
2018-09-22T01:31:40.294Z,16.00
2018-09-22T01:34:12.571Z,16.00
2018-09-22T01:36:41.150Z,15.90
2018-09-22T01:39:21.682Z,16.00
2018-09-22T01:41:50.423Z,16.00
2018-09-22T01:44:18.975Z,16.00
2018-09-22T01:46:48.073Z,16.00
2018-09-22T01:49:18.666Z,16.10
2018-09-22T01:51:46.326Z,16.00
2018-09-22T01:54:15.109Z,15.90
2018-09-22T01:56:43.689Z,15.70
2018-09-22T01:59:12.784Z,15.60
2018-09-22T02:01:42.519Z,15.50
2018-09-22T02:04:10.881Z,15.50
2018-09-22T02:06:39.790Z,15.50
2018-09-22T02:09:08.969Z,15.60
2018-09-22T02:11:36.830Z,15.60
2018-09-22T02:14:10.294Z,15.70
2018-09-22T02:16:39.419Z,15.70
2018-09-22T02:19:09.392Z,15.60
2018-09-22T02:21:37.644Z,15.70
2018-09-22T02:24:06.212Z,15.60
2018-09-22T02:26:35.372Z,15.60
2018-09-22T02:29:05.547Z,15.70
2018-09-22T02:31:34.977Z,15.60
2018-09-22T02:34:02.959Z,15.70
2018-09-22T02:36:34.929Z,15.60
2018-09-22T02:39:07.086Z,15.70
2018-09-22T02:41:36.233Z,15.70
2018-09-22T02:44:05.956Z,15.70
2018-09-22T02:49:36.555Z,15.80
2018-09-22T02:52:05.892Z,15.80
2018-09-22T02:54:34.609Z,15.80
2018-09-22T02:57:02.357Z,15.70
2018-09-22T02:59:32.396Z,15.80
2018-09-22T03:02:01.145Z,15.80
2018-09-22T03:04:32.087Z,15.80
2018-09-22T03:07:06.255Z,15.80
2018-09-22T03:09:53.634Z,15.70
2018-09-22T03:12:25.269Z,15.80
2018-09-22T03:21:10.197Z,15.90
2018-09-22T03:23:39.948Z,15.90
2018-09-22T03:26:09.573Z,15.90
2018-09-22T03:28:39.564Z,15.80
2018-09-22T03:34:17.285Z,15.80
2018-09-22T03:36:46.920Z,15.90
2018-09-22T03:39:15.724Z,16.00
2018-09-22T03:41:47.339Z,16.00
2018-09-22T03:44:16.705Z,15.90
2018-09-22T03:46:45.267Z,16.00
2018-09-22T03:49:23.413Z,15.90
2018-09-22T03:51:52.711Z,16.00
2018-09-22T03:54:20.878Z,16.00
2018-09-22T03:56:49.530Z,15.90
2018-09-22T04:05:25.163Z,16.10
2018-09-22T04:11:05.039Z,15.90
2018-09-22T04:13:33.617Z,16.00
2018-09-22T04:16:02.861Z,16.10
2018-09-22T04:18:34.427Z,16.10
2018-09-22T04:23:53.527Z,16.20
2018-09-22T04:26:23.602Z,16.10
2018-09-22T04:28:56.984Z,16.20
2018-09-22T04:37:11.132Z,16.20
2018-09-22T04:39:53.317Z,15.90
2018-09-22T04:42:28.615Z,16.10
2018-09-22T04:44:57.416Z,16.10
2018-09-22T04:50:37.794Z,16.20
2018-09-22T04:53:08.240Z,16.20
2018-09-22T04:55:36.698Z,16.10
2018-09-22T04:58:15.726Z,16.10
2018-09-22T05:00:54.307Z,16.20
2018-09-22T05:03:30.115Z,16.20
2018-09-22T05:06:14.195Z,16.10
2018-09-22T05:08:42.341Z,16.20
2018-09-22T05:11:10.539Z,16.10
2018-09-22T05:22:29.480Z,16.00
2018-09-22T05:27:53.927Z,16.00
2018-09-22T05:33:30.890Z,15.90
2018-09-22T05:36:05.982Z,15.90
2018-09-22T05:59:54.740Z,16.20
2018-09-22T06:02:31.404Z,16.10
2018-09-22T06:05:06.360Z,16.10
2018-09-22T06:07:40.545Z,16.20
2018-09-22T06:10:08.893Z,16.10
2018-09-22T06:12:40.090Z,16.00
2018-09-22T06:15:09.843Z,15.90
2018-09-22T06:17:39.180Z,15.90
2018-09-22T06:23:00.891Z,15.90
2018-09-22T06:25:30.070Z,15.70
2018-09-22T06:28:21.043Z,15.90
2018-09-22T06:30:50.791Z,15.70
2018-09-22T06:33:19.923Z,15.80
2018-09-22T06:38:50.844Z,15.80
2018-09-22T06:41:22.869Z,15.70
2018-09-22T06:43:51.652Z,15.60
2018-09-22T06:46:22.321Z,15.50
2018-09-22T06:48:51.217Z,15.50
2018-09-22T06:51:19.910Z,15.70
2018-09-22T06:54:00.146Z,15.50
2018-09-22T06:57:31.249Z,15.50
2018-09-22T07:02:44.579Z,15.70
2018-09-22T07:05:12.617Z,15.80
2018-09-22T07:07:48.174Z,15.80
2018-09-22T07:10:16.783Z,15.60
2018-09-22T07:12:45.689Z,15.60
2018-09-22T07:15:23.238Z,15.70
2018-09-22T07:17:57.838Z,15.70
2018-09-22T07:20:25.568Z,15.80
2018-09-22T07:23:00.619Z,15.70
2018-09-22T07:25:28.803Z,15.80
2018-09-22T07:27:57.140Z,15.70
2018-09-22T07:30:27.664Z,15.80
2018-09-22T07:32:57.381Z,15.70
2018-09-22T07:35:28.031Z,15.80
2018-09-22T07:37:56.500Z,15.80
2018-09-22T07:45:53.680Z,15.70
2018-09-22T07:48:22.545Z,15.90
2018-09-22T07:50:56.269Z,15.80
2018-09-22T07:53:35.895Z,15.80
2018-09-22T07:56:06.473Z,15.80
2018-09-22T07:58:34.655Z,15.90
2018-09-22T08:01:08.034Z,15.80
2018-09-22T08:03:41.828Z,15.80
2018-09-22T08:06:31.577Z,15.90
2018-09-22T08:09:16.802Z,15.90
2018-09-22T08:11:45.823Z,15.80
2018-09-22T08:14:13.592Z,15.90
2018-09-22T08:16:41.803Z,15.90
2018-09-22T08:19:11.654Z,15.80
2018-09-22T08:21:44.144Z,16.00
2018-09-22T08:24:17.518Z,16.10
2018-09-22T08:26:46.387Z,16.00
2018-09-22T08:29:17.763Z,16.10
2018-09-22T08:31:45.813Z,16.10
2018-09-22T08:34:14.259Z,16.10
2018-09-22T08:36:44.091Z,16.20
2018-09-22T08:39:20.206Z,16.10
2018-09-22T08:41:48.999Z,16.10
2018-09-22T08:44:17.755Z,16.20
2018-09-22T08:46:46.564Z,16.30
2018-09-22T08:49:14.933Z,16.40
2018-09-22T08:51:48.941Z,16.50
2018-09-22T08:54:58.999Z,16.50
2018-09-22T08:57:38.745Z,16.50
2018-09-22T09:00:09.294Z,16.60
2018-09-22T09:02:42.393Z,16.60
2018-09-22T09:05:11.320Z,16.60
2018-09-22T09:07:41.517Z,16.80
2018-09-22T09:10:12.279Z,16.80
2018-09-22T09:12:43.116Z,16.80
2018-09-22T09:15:11.290Z,16.80
2018-09-22T09:23:33.153Z,16.80
2018-09-22T09:26:01.157Z,16.90
2018-09-22T09:28:28.766Z,17.00
2018-09-22T09:30:56.889Z,17.00
2018-09-22T09:33:26.622Z,17.00
2018-09-22T09:35:54.398Z,17.10
2018-09-22T09:38:22.308Z,17.10
2018-09-22T09:40:51.578Z,17.20
2018-09-22T09:43:19.463Z,17.20
2018-09-22T09:45:54.724Z,17.30
2018-09-22T09:48:23.583Z,17.30
2018-09-22T09:50:56.902Z,17.40
2018-09-22T09:53:25.272Z,17.30
2018-09-22T09:55:55.263Z,17.40
2018-09-22T09:58:23.235Z,17.40
2018-09-22T10:00:51.876Z,17.50
2018-09-22T10:03:19.967Z,17.50
2018-09-22T10:05:51.400Z,17.60
2018-09-22T10:08:19.957Z,17.50
2018-09-22T10:10:47.602Z,17.40
2018-09-22T10:13:16.530Z,17.60
2018-09-22T10:15:45.935Z,17.60
2018-09-22T10:18:13.566Z,17.70
2018-09-22T10:20:46.853Z,17.70
2018-09-22T10:23:15.438Z,17.70
2018-09-22T10:25:44.979Z,17.80
2018-09-22T10:28:13.113Z,17.90
2018-09-22T10:30:41.167Z,18.10
2018-09-22T10:33:09.540Z,18.20
2018-09-22T10:35:39.327Z,18.20
2018-09-22T10:40:57.928Z,18.20
2018-09-22T10:43:44.015Z,18.20
2018-09-22T10:46:25.003Z,18.30
2018-09-22T10:48:53.433Z,18.40
2018-09-22T10:51:21.603Z,18.40
2018-09-22T10:53:49.636Z,18.50
2018-09-22T10:56:17.270Z,18.60
2018-09-22T10:58:47.055Z,18.60
2018-09-22T11:01:14.863Z,18.50
2018-09-22T11:03:42.866Z,18.50
2018-09-22T11:06:10.993Z,18.70
2018-09-22T11:08:38.935Z,18.90
2018-09-22T11:11:10.827Z,18.90
2018-09-22T11:16:43.590Z,18.90
2018-09-22T11:19:11.359Z,19.00
2018-09-22T11:21:39.342Z,19.00
2018-09-22T11:24:07.875Z,18.90
2018-09-22T11:26:36.017Z,18.90
2018-09-22T11:29:04.407Z,18.80
2018-09-22T11:31:36.260Z,18.90
2018-09-22T11:36:44.784Z,19.00
2018-09-22T11:39:13.063Z,18.90
2018-09-22T11:41:46.820Z,19.00
2018-09-22T11:44:15.419Z,19.00
2018-09-22T11:46:55.773Z,19.20
2018-09-22T11:49:24.656Z,19.20
2018-09-22T11:51:56.305Z,19.20
2018-09-22T11:54:24.376Z,19.20
2018-09-22T11:56:52.110Z,19.30
2018-09-22T11:59:19.832Z,19.30
2018-09-22T12:01:47.652Z,19.30
2018-09-22T12:04:16.437Z,19.50
2018-09-22T12:06:48.909Z,19.50
2018-09-22T12:09:16.462Z,19.60
2018-09-22T12:11:49.059Z,19.70
2018-09-22T12:14:17.492Z,19.80
2018-09-22T12:16:46.135Z,19.80
2018-09-22T12:19:13.982Z,19.80
2018-09-22T12:21:43.337Z,19.90
2018-09-22T12:24:12.890Z,19.80
2018-09-22T12:26:42.285Z,19.80
2018-09-22T12:29:11.097Z,19.80
2018-09-22T12:31:38.948Z,20.00
2018-09-22T12:34:08.896Z,20.10
2018-09-22T12:36:39.922Z,20.20
2018-09-22T12:39:10.012Z,20.30
2018-09-22T12:41:42.444Z,20.30
2018-09-22T12:44:16.829Z,20.40
2018-09-22T12:46:44.766Z,20.50
2018-09-22T12:49:12.472Z,20.50
2018-09-22T12:51:44.088Z,20.50
2018-09-22T12:54:20.229Z,20.40
2018-09-22T12:56:48.826Z,20.40
2018-09-22T12:59:19.999Z,20.50
2018-09-22T13:01:48.006Z,20.50
2018-09-22T13:04:15.879Z,20.40
2018-09-22T13:06:44.107Z,20.40
2018-09-22T13:09:12.397Z,20.40
2018-09-22T13:11:40.837Z,20.30
2018-09-22T13:14:12.473Z,20.20
2018-09-22T13:16:40.431Z,20.00
2018-09-22T13:19:09.203Z,20.00
2018-09-22T13:21:37.022Z,19.90
2018-09-22T13:24:04.584Z,19.90
2018-09-22T13:26:33.202Z,20.00
2018-09-22T13:29:01.250Z,20.00
2018-09-22T13:31:32.495Z,19.90
2018-09-22T13:34:00.074Z,20.00
2018-09-22T13:36:29.033Z,20.10
2018-09-22T13:38:57.383Z,20.10
2018-09-22T13:41:25.938Z,20.10
2018-09-22T13:43:53.816Z,20.30
2018-09-22T13:46:21.995Z,20.40
2018-09-22T13:48:53.088Z,20.40
2018-09-22T13:51:21.830Z,20.30
2018-09-22T13:53:50.311Z,20.30
2018-09-22T13:56:20.039Z,20.10
2018-09-22T13:58:54.906Z,20.20
2018-09-22T14:01:22.591Z,20.20
2018-09-22T14:03:55.913Z,20.20
2018-09-22T14:09:18.087Z,20.20
2018-09-22T14:11:49.551Z,20.10
2018-09-22T14:14:22.386Z,20.20
2018-09-22T14:16:52.814Z,20.10
2018-09-22T14:19:20.691Z,20.20
2018-09-22T14:21:48.618Z,20.20
2018-09-22T14:24:16.988Z,20.10
2018-09-22T14:26:46.829Z,20.20
2018-09-22T14:29:14.644Z,20.20
2018-09-22T14:31:42.752Z,20.20
2018-09-22T14:34:13.736Z,20.30
2018-09-22T14:36:41.692Z,20.40
2018-09-22T14:39:09.659Z,20.30
2018-09-22T14:41:38.351Z,20.40
2018-09-22T14:44:13.751Z,20.30
2018-09-22T14:46:42.208Z,20.30
2018-09-22T14:49:19.114Z,20.20
2018-09-22T14:51:46.955Z,20.20
2018-09-22T14:54:15.049Z,20.20
2018-09-22T14:56:44.188Z,20.10
2018-09-22T14:59:16.077Z,20.20
2018-09-22T15:01:56.479Z,20.10
2018-09-22T15:04:24.263Z,20.10
2018-09-22T15:06:52.724Z,20.00
2018-09-22T15:09:22.368Z,19.90
2018-09-22T15:11:50.302Z,19.90
2018-09-22T15:14:18.288Z,20.00
2018-09-22T15:19:24.230Z,20.10
2018-09-22T15:21:52.204Z,20.00
2018-09-22T15:24:20.290Z,20.00
2018-09-22T15:26:48.694Z,20.10
2018-09-22T15:29:19.530Z,20.00
2018-09-22T15:31:49.313Z,19.90
2018-09-22T15:34:17.357Z,19.90
2018-09-22T15:36:45.027Z,20.00
2018-09-22T15:39:13.971Z,19.90
2018-09-22T15:41:45.043Z,19.90
2018-09-22T15:44:12.696Z,19.90
2018-09-22T15:46:41.032Z,19.80
2018-09-22T15:49:08.891Z,19.80
2018-09-22T15:51:36.859Z,19.80
2018-09-22T15:54:04.923Z,19.70
2018-09-22T15:56:33.791Z,19.60
2018-09-22T15:59:01.639Z,19.50
2018-09-22T16:04:30.304Z,19.20
2018-09-22T16:06:58.767Z,19.00
2018-09-22T16:09:26.642Z,19.10
2018-09-22T16:11:55.183Z,19.10
2018-09-22T16:14:23.604Z,18.90
2018-09-22T16:16:51.448Z,18.90
2018-09-22T16:19:19.143Z,18.80
2018-09-22T16:21:46.867Z,18.60
2018-09-22T16:24:14.836Z,18.70
2018-09-22T16:26:42.440Z,18.80
2018-09-22T16:29:10.475Z,18.80
2018-09-22T16:31:38.831Z,18.70
2018-09-22T16:34:09.271Z,18.70
2018-09-22T16:36:37.220Z,18.90
2018-09-22T16:45:13.032Z,18.70
2018-09-22T16:50:48.422Z,18.70
2018-09-22T16:56:29.972Z,18.70
2018-09-22T17:08:11.017Z,19.00
2018-09-22T17:10:39.280Z,18.90
2018-09-22T17:13:07.517Z,18.80
2018-09-22T17:15:35.234Z,18.80
2018-09-22T17:18:04.263Z,18.90
2018-09-22T17:20:32.330Z,19.00
2018-09-22T17:23:00.620Z,19.10
2018-09-22T17:25:28.639Z,19.20
2018-09-22T17:27:57.087Z,19.20
2018-09-22T17:30:26.471Z,19.20
2018-09-22T17:32:54.485Z,19.30
2018-09-22T17:35:23.041Z,19.20
2018-09-22T17:37:51.336Z,19.20
2018-09-22T17:40:19.519Z,19.10
2018-09-22T17:42:47.917Z,19.10
2018-09-22T17:45:16.196Z,18.90
2018-09-22T17:47:44.893Z,18.60
2018-09-22T17:50:14.618Z,18.50
2018-09-22T17:52:42.499Z,18.50
2018-09-22T17:55:11.257Z,18.40
2018-09-22T17:57:46.401Z,18.40
2018-09-22T18:00:14.564Z,18.30
2018-09-22T18:02:42.453Z,18.60
2018-09-22T18:05:10.155Z,18.50
2018-09-22T18:07:45.247Z,18.50
2018-09-22T18:10:13.974Z,18.40
2018-09-22T18:16:04.841Z,18.50
2018-09-22T18:21:51.284Z,18.10
2018-09-22T18:24:23.749Z,18.00
2018-09-22T18:26:53.054Z,18.10
2018-09-22T18:29:20.789Z,17.90
2018-09-22T18:31:48.856Z,18.00
2018-09-22T18:34:17.604Z,18.10
2018-09-22T18:36:46.247Z,18.20
2018-09-22T18:39:14.436Z,18.10
2018-09-22T18:44:46.079Z,17.90
2018-09-22T18:50:19.360Z,17.90
2018-09-22T18:52:47.244Z,17.90
2018-09-22T18:55:18.031Z,17.90
2018-09-22T19:00:49.664Z,18.10
2018-09-22T19:09:22.817Z,18.00
2018-09-22T19:11:50.813Z,17.90
2018-09-22T19:17:25.190Z,18.00
2018-09-22T19:22:49.517Z,18.10
2018-09-22T19:28:44.234Z,18.10
2018-09-22T19:34:34.828Z,18.10
2018-09-22T19:40:10.615Z,18.10
2018-09-22T19:42:44.027Z,18.10
2018-09-22T19:45:28.357Z,18.10
2018-09-22T19:51:02.612Z,18.10
2018-09-22T19:56:33.114Z,18.10
2018-09-22T20:04:30.105Z,18.10
2018-09-22T20:07:01.134Z,18.10
2018-09-22T20:12:18.639Z,18.10
2018-09-22T20:15:12.765Z,18.10
2018-09-22T20:17:43.593Z,18.00
2018-09-22T20:20:12.369Z,17.90
2018-09-22T20:22:46.929Z,17.90
2018-09-22T20:25:19.004Z,18.00
2018-09-22T20:33:32.213Z,18.00
2018-09-22T20:36:00.703Z,17.90
2018-09-22T20:38:28.814Z,17.90
2018-09-22T20:44:03.260Z,17.90
2018-09-22T20:46:31.223Z,18.00
2018-09-22T20:48:59.188Z,17.90
2018-09-22T20:51:27.527Z,17.90
2018-09-22T20:53:56.536Z,17.80
2018-09-22T21:03:16.262Z,17.80
2018-09-22T21:05:47.352Z,17.70
2018-09-22T21:08:19.335Z,17.70
2018-09-22T21:13:40.512Z,17.80
2018-09-22T21:16:09.684Z,17.80
2018-09-22T21:18:38.563Z,17.70
2018-09-22T21:21:08.025Z,17.80
2018-09-22T21:23:36.244Z,17.70
2018-09-22T21:26:04.311Z,17.70
2018-09-22T21:28:49.170Z,17.70
2018-09-22T21:31:17.832Z,17.70
2018-09-22T21:34:05.445Z,17.70
2018-09-22T21:36:33.542Z,17.70
2018-09-22T21:39:07.806Z,17.70
2018-09-22T21:41:35.688Z,17.70
2018-09-22T21:44:03.969Z,17.70
2018-09-22T21:46:31.693Z,17.60
2018-09-22T21:48:59.420Z,17.70
2018-09-22T21:51:27.234Z,17.60
2018-09-22T21:53:55.307Z,17.50
2018-09-22T21:56:24.460Z,17.40
2018-09-22T21:59:08.692Z,17.50
2018-09-22T22:01:37.876Z,17.50
2018-09-22T22:04:06.030Z,17.20
2018-09-22T22:06:34.446Z,17.20
2018-09-22T22:09:06.383Z,17.30
2018-09-22T22:17:40.400Z,17.20
2018-09-22T22:23:12.486Z,17.10
2018-09-22T22:25:49.844Z,17.10
2018-09-22T22:28:30.078Z,17.10
2018-09-22T22:30:59.401Z,17.00
2018-09-22T22:33:30.789Z,17.10
2018-09-22T22:36:09.976Z,16.90
2018-09-22T22:38:39.023Z,16.90
2018-09-22T22:41:07.854Z,17.00
2018-09-22T22:43:37.631Z,17.00
2018-09-22T22:46:07.036Z,17.00
2018-09-22T22:48:34.698Z,17.00
2018-09-22T22:51:02.698Z,17.10
2018-09-22T22:53:35.049Z,17.10
2018-09-22T22:56:02.788Z,17.00
2018-09-22T22:58:30.470Z,16.90
2018-09-22T23:01:05.184Z,16.90
2018-09-22T23:06:37.370Z,17.00
2018-09-22T23:09:08.721Z,17.00
2018-09-22T23:11:36.703Z,16.80
2018-09-22T23:14:04.786Z,16.80
2018-09-22T23:16:34.006Z,16.90
2018-09-22T23:19:02.034Z,16.90
2018-09-22T23:21:30.741Z,17.00
2018-09-22T23:23:58.762Z,17.00
2018-09-22T23:26:30.169Z,17.00
2018-09-22T23:28:58.001Z,17.00
2018-09-22T23:31:26.835Z,17.00
2018-09-22T23:33:54.765Z,16.90
2018-09-22T23:36:23.908Z,16.90
2018-09-22T23:38:51.846Z,16.90
2018-09-22T23:41:20.847Z,17.00
2018-09-22T23:43:48.747Z,16.90
2018-09-22T23:46:16.562Z,16.90
2018-09-22T23:48:44.304Z,16.90
2018-09-22T23:51:12.091Z,16.90
2018-09-22T23:53:40.267Z,16.90
2018-09-22T23:56:08.195Z,16.90
2018-09-22T23:58:36.039Z,17.00
